Latest Coastal Weather Observations for South Johnstone

IDQ60701

Issued at 9:52 pm EST Wednesday 28 September 2016 (issued every 10 minutes, with the page automatically refreshed every 10 minutes)

About coastal observations | Map of coastal stations | Coastal observations for QLD | Marine services | Other Formats
Station Details ID: 032037 Name: SOUTH JOHNSTONE EXP STN Lat: -17.61 Lon: 146.00 Height: 18.3 m
Data from the previous 72 hours. | See also: Recent months at South Johnstone
Date/Time
EST
Temp
°C
Wind Pressure Rain since
9am
mm
Weather Cloud Vis
km
Sea
Height
m
Swell
Dir  Spd
kts
Gust
kts
hPa Trend Height
m
Period
s
Dir
28/09:30pm 22.8 W 1 3 1012.5 - 0.0 - - - - - - -
28/09:00pm 22.9 WSW 1 4 1012.2 - 0.0 - - - - - - -
28/08:30pm 23.1 CALM 0 0 1012.0 - 0.0 - - - - - - -
28/08:00pm 23.4 CALM 0 0 1011.9 - 0.0 - - - - - - -
28/07:30pm 23.7 CALM 0 0 1011.8 - 0.0 - - - - - - -
28/07:00pm 24.2 CALM 0 0 1011.5 - 0.0 - - - - - - -
28/06:30pm 24.8 CALM 0 2 1011.3 - 0.0 - - - - - - -
28/06:00pm 25.6 ENE 4 7 1011.1 - 0.0 - - - - - - -
28/05:30pm 26.1 NE 7 11 1011.0 - 0.0 - - - - - - -
28/05:00pm 27.1 E 7 9 1010.7 - 0.0 - - - - - - -
28/04:30pm 27.2 ENE 7 12 1010.5 - 0.0 - - - - - - -
28/04:00pm 27.2 E 7 11 1010.5 - 0.0 - - - - - - -
28/03:30pm 28.0 E 8 13 1010.4 - 0.0 - - - - - - -
28/03:00pm 28.4 NE 9 13 1010.4 - 0.0 - - - - - - -
28/02:30pm 29.1 NE 8 14 1010.8 - 0.0 - - - - - - -
28/02:00pm 29.1 NE 7 11 1010.9 - 0.0 - - - - - - -
28/01:30pm 28.8 NE 8 14 1011.5 - 0.0 - - - - - - -
28/01:00pm 29.1 ENE 8 13 1012.0 - 0.0 - - - - - - -
28/12:30pm 28.8 NE 8 14 1012.5 - 0.0 - - - - - - -
28/12:00pm 28.8 ENE 7 10 1012.9 - 0.0 - - - - - - -
28/11:30am 29.1 NE 6 10 1013.4 - 0.0 - - - - - - -
28/11:00am 29.0 NE 7 11 1013.8 - 0.0 - - - - - - -
28/10:30am 29.0 NNE 5 9 1014.0 - 0.0 - - - - - - -
28/10:00am 28.5 SE 1 5 1014.4 - 0.0 - - - - - - -
28/09:30am 28.0 NNE 2 4 1014.7 - 0.0 - - - - - - -
28/09:00am 27.6 E 2 6 1014.4 - 0.0 - - - - - - -
28/08:30am 26.0 CALM 0 2 1014.4 - 0.0 - - - - - - -
28/08:00am 24.3 WSW 4 6 1014.1 - 0.0 - - - - - - -
28/07:30am 22.9 SW 3 5 1013.7 - 0.0 - - - - - - -
28/07:00am 21.9 CALM 0 0 1013.5 - 0.0 - - - - - - -
28/06:30am 21.3 CALM 0 0 1013.2 - 0.0 - - - - - - -
28/06:00am 21.3 W 3 6 1012.9 - 0.0 - - - - - - -
28/05:30am 21.6 WNW 4 5 1012.5 - 0.0 - - - - - - -
28/05:00am 21.9 W 3 6 1012.3 - 0.0 - - - - - - -
28/04:30am 21.8 W 2 6 1012.1 - 0.0 - - - - - - -
28/04:00am 22.1 W 3 5 1012.0 - 0.0 - - - - - - -
28/03:30am 22.0 WNW 2 4 1012.0 - 0.0 - - - - - - -
28/03:00am 21.9 WSW 5 7 1012.0 - 0.0 - - - - - - -
28/02:30am 22.4 CALM 0 0 1012.3 - 0.0 - - - - - - -
28/02:00am 22.3 WSW 1 5 1012.6 - 0.0 - - - - - - -
28/01:30am 22.3 CALM 0 3 1013.0 - 0.0 - - - - - - -
28/01:00am 22.6 WSW 4 6 1013.3 - 0.0 - - - - - - -
28/12:30am 22.5 CALM 0 0 1013.6 - 0.0 - - - - - - -
28/12:00am 22.4 CALM 0 0 1013.6 - 0.0 - - - - - - -
 
Date/Time
EST
Temp
°C
Wind Pressure Rain since
9am
mm
Weather Cloud Vis
km
Sea
Height
m
Swell
Dir  Spd
kts
Gust
kts
hPa Trend Height
m
Period
s
Dir
27/11:30pm 22.8 WSW 3 6 1013.7 - 0.0 - - - - - - -
27/11:00pm 22.9 CALM 0 3 1013.7 - 0.0 - - - - - - -
27/10:30pm 23.2 WSW 5 6 1013.7 - 0.0 - - - - - - -
27/10:00pm 23.3 CALM 0 1 1013.9 - 0.0 - - - - - - -
27/09:30pm 23.6 WSW 1 4 1013.7 - 0.0 - - - - - - -
27/09:00pm 24.2 SW 5 6 1013.5 - 0.0 - - - - - - -
27/08:30pm 24.1 CALM 0 0 1013.4 - 0.0 - - - - - - -
27/08:00pm 24.7 CALM 0 0 1013.3 - 0.0 - - - - - - -
27/07:30pm 24.5 S 3 4 1013.0 - 0.0 - - - - - - -
27/07:00pm 24.7 SE 3 5 1012.5 - 0.0 - - - - - - -
27/06:30pm 25.2 E 4 5 1012.1 - 0.0 - - - - - - -
27/06:00pm 26.0 E 5 6 1011.6 - 0.0 - - - - - - -
27/05:30pm 26.9 E 5 7 1011.5 - 0.0 - - - - - - -
27/05:00pm 27.4 E 5 8 1011.1 - 0.0 - - - - - - -
27/04:30pm 27.8 E 6 10 1010.8 - 0.0 - - - - - - -
27/04:00pm 28.6 E 7 11 1010.6 - 0.0 - - - - - - -
27/03:30pm 29.3 ESE 6 9 1010.8 - 0.0 - - - - - - -
27/03:00pm 29.0 ESE 7 11 1010.8 - 0.0 - - - - - - -
27/02:30pm 29.7 E 9 13 1010.9 - 0.0 - - - - - - -
27/02:00pm 30.2 ESE 7 12 1011.2 - 0.0 - - - - - - -
27/01:30pm 29.3 E 7 11 1011.5 - 0.0 - - - - - - -
27/01:00pm 30.1 E 5 8 1012.0 - 0.0 - - - - - - -
27/12:30pm 30.4 SSE 5 14 1012.6 - 0.0 - - - - - - -
27/12:00pm 28.9 SE 5 8 1013.3 - 0.0 - - - - - - -
27/11:30am 28.8 S 5 8 1013.9 - 0.0 - - - - - - -
27/11:00am 28.5 SSE 6 8 1014.2 - 0.0 - - - - - - -
27/10:30am 28.3 S 4 7 1014.5 - 0.0 - - - - - - -
27/10:00am 27.7 SSE 4 7 1014.8 - 0.0 - - - - - - -
27/09:30am 27.8 ESE 3 5 1015.0 - 0.0 - - - - - - -
27/09:00am 27.4 CALM 0 0 1015.1 - 0.0 - - - - - - -
27/08:30am 26.3 CALM 0 0 1015.3 - 0.0 - - - - - - -
27/08:00am 23.8 CALM 0 3 1015.1 - 0.0 - - - - - - -
27/07:30am 22.1 CALM 0 0 1015.0 - 0.0 - - - - - - -
27/07:00am 20.9 SW 3 4 1014.8 - 0.0 - - - - - - -
27/06:30am 20.5 CALM 0 0 1014.2 - 0.0 - - - - - - -
27/06:00am 20.7 CALM 0 0 1013.6 - 0.0 - - - - - - -
27/05:30am 20.8 CALM 0 0 1013.4 - 0.0 - - - - - - -
27/05:00am 21.0 CALM 0 4 1013.0 - 0.0 - - - - - - -
27/04:30am 21.3 WSW 1 4 1012.8 - 0.0 - - - - - - -
27/04:00am 21.3 CALM 0 0 1012.7 - 0.0 - - - - - - -
27/03:30am 21.3 CALM 0 0 1012.7 - 0.0 - - - - - - -
27/03:00am 21.7 WSW 4 6 1012.8 - 0.0 - - - - - - -
27/02:30am 21.6 SW 7 8 1013.0 - 0.0 - - - - - - -
27/02:00am 21.5 W 3 6 1013.2 - 0.0 - - - - - - -
27/01:30am 21.6 WSW 4 6 1013.3 - 0.0 - - - - - - -
27/01:00am 22.0 CALM 0 1 1013.6 - 0.0 - - - - - - -
27/12:30am 21.9 WSW 1 4 1013.8 - 0.0 - - - - - - -
27/12:00am 22.2 W 4 6 1013.8 - 0.0 - - - - - - -
 
Date/Time
EST
Temp
°C
Wind Pressure Rain since
9am
mm
Weather Cloud Vis
km
Sea
Height
m
Swell
Dir  Spd
kts
Gust
kts
hPa Trend Height
m
Period
s
Dir
26/11:30pm 22.6 W 4 6 1014.1 - 0.0 - - - - - - -
26/11:00pm 22.9 CALM 0 0 1013.9 - 0.0 - - - - - - -
26/10:30pm 23.3 CALM 0 0 1013.9 - 0.0 - - - - - - -
26/10:00pm 23.3 WSW 1 5 1013.7 - 0.0 - - - - - - -
26/09:30pm 23.6 CALM 0 3 1013.7 - 0.0 - - - - - - -
26/09:00pm 23.3 CALM 0 4 1013.4 - 0.0 - - - - - - -
26/08:30pm 23.8 CALM 0 0 1013.3 - 0.0 - - - - - - -
26/08:00pm 23.9 CALM 0 0 1012.9 - 0.0 - - - - - - -
26/07:30pm 24.4 CALM 0 0 1012.4 - 0.0 - - - - - - -
26/07:00pm 24.5 CALM 0 0 1012.1 - 0.0 - - - - - - -
26/06:30pm 25.2 CALM 0 0 1011.7 - 0.0 - - - - - - -
26/06:00pm 26.0 NE 3 5 1011.3 - 0.0 - - - - - - -
26/05:30pm 26.8 NNE 5 7 1011.0 - 0.0 - - - - - - -
26/05:00pm 27.3 NE 5 9 1010.8 - 0.0 - - - - - - -
26/04:30pm 27.8 NE 6 10 1010.5 - 0.0 - - - - - - -
26/04:00pm 28.9 ENE 6 8 1010.4 - 0.0 - - - - - - -
26/03:30pm 29.6 ESE 6 11 1010.3 - 0.0 - - - - - - -
26/03:00pm 30.2 E 7 11 1010.2 - 0.0 - - - - - - -
26/02:30pm 30.1 SE 7 12 1010.4 - 0.0 - - - - - - -
26/02:00pm 30.3 ESE 7 12 1010.6 - 0.0 - - - - - - -
26/01:30pm 30.5 ESE 7 10 1010.8 - 0.0 - - - - - - -
26/01:00pm 30.6 E 6 11 1011.1 - 0.0 - - - - - - -
26/12:30pm 30.6 SE 6 9 1011.5 - 0.0 - - - - - - -
26/12:00pm 30.7 SW 5 8 1011.9 - 0.0 - - - - - - -
26/11:30am 29.8 SSE 4 6 1012.7 - 0.0 - - - - - - -
26/11:00am 29.5 ESE 4 7 1013.1 - 0.0 - - - - - - -
26/10:30am 29.2 SSE 3 6 1013.4 - 0.0 - - - - - - -
26/10:00am 28.0 SSE 4 6 1013.7 - 0.0 - - - - - - -
26/09:30am 28.0 WSW 2 6 1014.1 - 0.0 - - - - - - -
26/09:00am 26.9 WNW 2 4 1014.2 - 0.0 - - - - - - -
26/08:30am 25.0 CALM 0 0 1014.2 - 0.0 - - - - - - -
26/08:00am 22.9 CALM 0 0 1014.1 - 0.0 - - - - - - -
26/07:30am 21.8 SW 5 7 1013.7 - 0.0 - - - - - - -
26/07:00am 21.0 WNW 1 3 1013.2 - 0.0 - - - - - - -
26/06:30am 20.6 CALM 0 0 1012.9 - 0.0 - - - - - - -
26/06:00am 20.5 CALM 0 0 1012.4 - 0.0 - - - - - - -
26/05:30am 20.7 CALM 0 0 1012.0 - 0.0 - - - - - - -
26/05:00am 20.8 WNW 1 4 1011.7 - 0.0 - - - - - - -
26/04:30am 20.7 CALM 0 3 1011.4 - 0.0 - - - - - - -
26/04:00am 20.7 CALM 0 4 1011.4 - 0.0 - - - - - - -
26/03:30am 20.6 WSW 4 5 1011.4 - 0.0 - - - - - - -
26/03:00am 20.9 CALM 0 0 1011.4 - 0.0 - - - - - - -
26/02:30am 21.0 CALM 0 0 1011.7 - 0.0 - - - - - - -
26/02:00am 21.0 WSW 6 9 1011.7 - 0.0 - - - - - - -
26/01:30am 21.1 W 2 4 1011.8 - 0.0 - - - - - - -
26/01:00am 21.1 CALM 0 0 1011.9 - 0.0 - - - - - - -
26/12:30am 21.7 W 3 5 1011.8 - 0.0 - - - - - - -
26/12:00am 22.0 W 3 6 1011.8 - 0.0 - - - - - - -
 
Date/Time
EST
Temp
°C
Wind Pressure Rain since
9am
mm
Weather Cloud Vis
km
Sea
Height
m
Swell
Dir  Spd
kts
Gust
kts
hPa Trend Height
m
Period
s
Dir
25/11:30pm 21.9 CALM 0 0 1012.2 - 0.0 - - - - - - -
25/11:00pm 22.3 W 1 4 1012.4 - 0.0 - - - - - - -
25/10:30pm 22.7 CALM 0 0 1012.5 - 0.0 - - - - - - -
25/10:00pm 22.9 CALM 0 0 1012.4 - 0.0 - - - - - - -

Other Formats:

Comma delimited format used in spreadsheet applications
http://www.bom.gov.au/fwo/IDQ60701/IDQ60701.95292.axf

JavaScript Object Notation format (JSON) in row-major order
http://www.bom.gov.au/fwo/IDQ60701/IDQ60701.95292.json